createdAt,value
2018-04-09T00:01:42.395Z,29.73
2018-04-09T00:04:10.024Z,34.33
2018-04-09T00:06:37.616Z,35.13
2018-04-09T00:09:06.021Z,23.10
2018-04-09T00:11:33.644Z,29.87
2018-04-09T00:14:02.003Z,25.80
2018-04-09T00:16:29.725Z,27.93
2018-04-09T00:18:57.324Z,25.73
2018-04-09T00:21:24.956Z,34.47
2018-04-09T00:23:52.544Z,35.10
2018-04-09T00:26:20.138Z,31.60
2018-04-09T00:28:47.759Z,29.77
2018-04-09T00:31:15.350Z,31.63
2018-04-09T00:33:43.740Z,33.17
2018-04-09T00:36:11.332Z,29.87
2018-04-09T00:38:38.932Z,24.77
2018-04-09T00:41:06.547Z,38.10
2018-04-09T00:43:34.136Z,31.33
2018-04-09T00:46:01.763Z,23.80
2018-04-09T00:48:29.365Z,24.40
2018-04-09T00:50:56.968Z,26.10
2018-04-09T00:53:36.435Z,26.23
2018-04-09T00:56:04.035Z,33.47
2018-04-09T00:58:31.662Z,33.13
2018-04-09T01:00:59.259Z,26.37
2018-04-09T01:03:26.852Z,29.60
2018-04-09T01:05:54.471Z,32.70
2018-04-09T01:08:22.072Z,33.10
2018-04-09T01:10:49.709Z,34.33
2018-04-09T01:13:18.064Z,29.87
2018-04-09T01:15:45.666Z,36.17
2018-04-09T01:18:13.284Z,35.30
2018-04-09T01:20:40.871Z,35.70
2018-04-09T01:23:09.294Z,31.00
2018-04-09T01:25:36.888Z,24.30
2018-04-09T01:28:05.248Z,30.97
2018-04-09T01:30:32.883Z,30.30
2018-04-09T01:33:00.475Z,34.03
2018-04-09T01:35:28.103Z,31.50
2018-04-09T01:37:55.696Z,36.77
2018-04-09T01:40:23.288Z,37.87
2018-04-09T01:42:51.688Z,36.33
2018-04-09T01:45:19.288Z,33.43
2018-04-09T01:47:46.963Z,27.47
2018-04-09T01:50:14.539Z,33.57
2018-04-09T01:52:42.895Z,40.30
2018-04-09T01:55:10.518Z,38.10
2018-04-09T01:57:38.113Z,33.70
2018-04-09T02:00:05.735Z,32.27
2018-04-09T02:02:33.329Z,30.77
2018-04-09T02:05:00.954Z,34.30
2018-04-09T02:07:28.556Z,28.90
2018-04-09T02:09:56.184Z,31.40
2018-04-09T02:12:23.779Z,31.27
2018-04-09T02:14:51.375Z,31.13
2018-04-09T02:17:19.760Z,30.80
2018-04-09T02:19:48.121Z,29.20
2018-04-09T02:22:15.744Z,26.17
2018-04-09T02:24:43.335Z,41.70
2018-04-09T02:27:10.964Z,32.10
2018-04-09T02:29:38.557Z,34.40
2018-04-09T02:32:06.944Z,31.60
2018-04-09T02:34:35.314Z,39.30
2018-04-09T02:37:02.933Z,36.20
2018-04-09T02:39:30.531Z,28.13
2018-04-09T02:41:58.157Z,33.00
2018-04-09T02:44:25.749Z,34.60
2018-04-09T02:46:53.388Z,37.13
2018-04-09T02:49:20.983Z,30.03
2018-04-09T02:51:48.606Z,30.57
2018-04-09T02:54:16.273Z,30.90
2018-04-09T02:56:43.897Z,34.80
2018-04-09T02:59:11.489Z,28.10
2018-04-09T03:01:39.105Z,30.07
2018-04-09T03:04:07.460Z,31.07
2018-04-09T03:06:35.079Z,36.33
2018-04-09T03:09:02.686Z,35.40
2018-04-09T03:11:30.311Z,31.57
2018-04-09T03:13:57.915Z,38.03
2018-04-09T03:16:25.511Z,34.73
2018-04-09T03:18:53.127Z,29.20
2018-04-09T03:21:20.758Z,27.20
2018-04-09T03:23:48.393Z,33.67
2018-04-09T03:26:15.993Z,46.90
2018-04-09T03:28:43.615Z,41.63
2018-04-09T03:31:11.212Z,36.27
2018-04-09T03:33:38.840Z,37.17
2018-04-09T03:36:06.440Z,33.93
2018-04-09T03:38:34.060Z,34.70
2018-04-09T03:41:01.659Z,40.30
2018-04-09T03:43:29.283Z,27.03
2018-04-09T03:45:56.876Z,42.20
2018-04-09T03:48:24.494Z,35.90
2018-04-09T03:50:52.192Z,48.33
2018-04-09T03:53:19.822Z,43.60
2018-04-09T03:55:47.414Z,37.77
2018-04-09T03:58:15.081Z,37.93
2018-04-09T04:00:42.699Z,43.00
2018-04-09T04:03:10.319Z,30.43
2018-04-09T04:05:38.712Z,47.83
2018-04-09T04:08:06.333Z,39.37
2018-04-09T04:10:33.932Z,47.53
2018-04-09T04:13:01.549Z,33.80
2018-04-09T04:15:41.227Z,37.17
2018-04-09T04:18:14.428Z,43.77
2018-04-09T04:20:53.936Z,37.43
2018-04-09T04:23:21.567Z,41.83
2018-04-09T04:25:49.166Z,41.33
2018-04-09T04:28:16.763Z,40.50
2018-04-09T04:30:45.157Z,43.07
2018-04-09T04:33:12.760Z,44.13
2018-04-09T04:35:40.389Z,39.77
2018-04-09T04:38:07.986Z,46.17
2018-04-09T04:40:35.601Z,43.10
2018-04-09T04:43:03.197Z,43.07
2018-04-09T04:45:30.825Z,38.63
2018-04-09T04:47:58.420Z,35.20
2018-04-09T04:50:26.036Z,48.63
2018-04-09T04:52:54.391Z,45.57
2018-04-09T04:55:22.020Z,52.90
2018-04-09T04:57:49.782Z,46.80
2018-04-09T05:00:17.399Z,37.43
2018-04-09T05:02:45.764Z,49.10
2018-04-09T05:05:13.386Z,40.37
2018-04-09T05:07:40.986Z,44.73
2018-04-09T05:10:09.391Z,43.90
2018-04-09T05:12:37.124Z,52.13
2018-04-09T05:15:04.709Z,39.80
2018-04-09T05:17:32.331Z,43.23
2018-04-09T05:19:59.930Z,36.77
2018-04-09T05:22:28.324Z,42.90
2018-04-09T05:24:55.920Z,51.70
2018-04-09T05:27:23.518Z,46.00
2018-04-09T05:29:51.900Z,49.63
2018-04-09T05:32:20.260Z,38.20
2018-04-09T05:34:47.886Z,48.93
2018-04-09T05:37:15.480Z,46.70
2018-04-09T05:39:43.076Z,36.63
2018-04-09T05:42:10.693Z,46.70
2018-04-09T05:44:39.800Z,43.10
2018-04-09T05:47:07.424Z,45.20
2018-04-09T05:49:35.031Z,43.13
2018-04-09T05:52:03.390Z,39.43
2018-04-09T05:54:31.013Z,40.60
2018-04-09T05:56:58.608Z,32.47
2018-04-09T05:59:26.258Z,35.03
2018-04-09T06:01:53.868Z,43.97
2018-04-09T06:04:22.228Z,36.90
2018-04-09T06:06:49.856Z,41.33
2018-04-09T06:09:17.451Z,48.90
2018-04-09T06:11:45.848Z,47.00
2018-04-09T06:14:14.203Z,45.97
2018-04-09T06:16:41.791Z,47.63
2018-04-09T06:19:09.404Z,39.97
2018-04-09T06:21:36.996Z,51.47
2018-04-09T06:24:05.379Z,46.30
2018-04-09T06:26:33.732Z,49.10
2018-04-09T06:29:01.362Z,50.20
2018-04-09T06:31:28.968Z,48.53
2018-04-09T06:33:56.588Z,31.97
2018-04-09T06:36:24.186Z,53.50
2018-04-09T06:38:51.804Z,52.23
2018-04-09T06:41:19.396Z,45.60
2018-04-09T06:43:47.186Z,48.47
2018-04-09T06:46:15.552Z,47.03
2018-04-09T06:48:43.175Z,29.53
2018-04-09T06:51:10.764Z,38.10
2018-04-09T06:53:38.387Z,55.43
2018-04-09T06:56:05.979Z,55.30
2018-04-09T06:58:33.605Z,38.23
2018-04-09T07:01:01.208Z,44.13
2018-04-09T07:03:28.824Z,41.83
2018-04-09T07:05:56.420Z,39.47
2018-04-09T07:08:24.040Z,28.97
2018-04-09T07:10:51.640Z,41.70
2018-04-09T07:13:19.259Z,41.80
2018-04-09T07:15:46.883Z,50.87
2018-04-09T07:18:15.282Z,45.00
2018-04-09T07:20:43.640Z,46.87
2018-04-09T07:23:11.260Z,45.17
2018-04-09T07:25:38.856Z,50.77
2018-04-09T07:28:06.501Z,48.00
2018-04-09T07:30:34.098Z,57.23
2018-04-09T07:33:02.487Z,38.87
2018-04-09T07:35:30.088Z,52.07
2018-04-09T07:37:57.679Z,52.43
2018-04-09T07:40:25.407Z,47.17
2018-04-09T07:42:53.007Z,40.57
2018-04-09T07:45:20.630Z,35.50
2018-04-09T07:47:48.224Z,44.47
2018-04-09T07:50:15.845Z,51.20
2018-04-09T07:52:43.613Z,53.53
2018-04-09T07:55:11.231Z,54.43
2018-04-09T07:57:39.635Z,56.50
2018-04-09T08:00:07.263Z,45.47
2018-04-09T08:02:35.624Z,35.90
2018-04-09T08:05:03.405Z,47.57
2018-04-09T08:07:31.850Z,46.07
2018-04-09T08:09:59.442Z,42.53
2018-04-09T08:12:27.056Z,45.77
2018-04-09T08:14:54.649Z,50.40
2018-04-09T08:17:22.277Z,45.20
2018-04-09T08:19:49.868Z,49.50
2018-04-09T08:22:17.504Z,36.10
2018-04-09T08:24:45.127Z,35.93
2018-04-09T08:27:12.736Z,41.43
2018-04-09T08:29:40.381Z,44.30
2018-04-09T08:32:07.972Z,43.23
2018-04-09T08:34:35.559Z,52.97
2018-04-09T08:37:03.948Z,27.00
2018-04-09T08:39:32.311Z,26.83
2018-04-09T08:42:00.712Z,25.03
2018-04-09T08:44:28.320Z,36.37
2018-04-09T08:46:55.916Z,43.10
2018-04-09T08:49:24.305Z,30.10
2018-04-09T08:51:51.899Z,40.47
2018-04-09T08:54:19.536Z,35.50
2018-04-09T08:56:47.128Z,29.30
2018-04-09T08:59:14.717Z,33.33
2018-04-09T09:01:42.399Z,28.23
2018-04-09T09:04:09.968Z,35.73
2018-04-09T09:06:38.361Z,20.30
2018-04-09T09:09:05.976Z,19.87
2018-04-09T09:11:35.077Z,22.10
2018-04-09T09:14:02.704Z,24.83
2018-04-09T09:16:30.398Z,26.70
2018-04-09T09:18:58.232Z,19.00
2018-04-09T09:21:25.829Z,21.10
2018-04-09T09:23:53.450Z,19.33
2018-04-09T09:26:21.052Z,23.90
2018-04-09T09:28:48.675Z,27.33
2018-04-09T09:31:16.268Z,20.57
2018-04-09T09:33:45.572Z,19.50
2018-04-09T09:36:13.330Z,22.60
2018-04-09T09:38:40.924Z,19.67
2018-04-09T09:41:09.318Z,18.80
2018-04-09T09:43:36.945Z,17.97
2018-04-09T09:46:05.331Z,24.13
2018-04-09T09:48:33.698Z,20.53
2018-04-09T09:51:01.324Z,23.13
2018-04-09T09:53:28.918Z,16.50
2018-04-09T09:55:56.544Z,21.30
2018-04-09T09:58:24.160Z,23.50
2018-04-09T10:00:52.519Z,19.80
2018-04-09T10:03:25.908Z,19.73
2018-04-09T10:05:53.511Z,21.27
2018-04-09T10:08:21.202Z,19.70
2018-04-09T10:10:48.804Z,27.90
2018-04-09T10:13:16.548Z,15.87
2018-04-09T10:15:44.314Z,19.77
2018-04-09T10:18:12.061Z,14.30
2018-04-09T10:20:39.720Z,13.17
2018-04-09T10:23:07.377Z,12.60
2018-04-09T10:25:35.164Z,16.27
2018-04-09T10:28:02.808Z,21.90
2018-04-09T10:30:30.612Z,15.03
2018-04-09T10:32:58.332Z,16.23
2018-04-09T10:35:26.097Z,15.07
2018-04-09T10:37:53.882Z,15.23
2018-04-09T10:40:21.745Z,12.27
2018-04-09T10:42:49.412Z,12.93
2018-04-09T10:45:17.191Z,17.73
2018-04-09T10:47:44.840Z,21.50
2018-04-09T10:50:12.497Z,15.77
2018-04-09T10:52:40.258Z,20.53
2018-04-09T10:55:08.041Z,15.87
2018-04-09T10:57:36.498Z,17.10
2018-04-09T11:00:04.356Z,16.43
2018-04-09T11:02:32.040Z,16.47
2018-04-09T11:04:59.700Z,17.40
2018-04-09T11:07:27.398Z,14.53
2018-04-09T11:09:55.939Z,12.70
2018-04-09T11:12:23.706Z,12.27
2018-04-09T11:14:51.390Z,13.57
2018-04-09T11:17:19.020Z,13.90
2018-04-09T11:19:46.887Z,15.93
2018-04-09T11:22:14.647Z,11.93
2018-04-09T11:24:42.432Z,16.97
2018-04-09T11:27:10.215Z,14.63
2018-04-09T11:29:37.823Z,14.20
2018-04-09T11:32:05.718Z,16.80
2018-04-09T11:34:33.320Z,14.10
2018-04-09T11:37:01.403Z,13.60
2018-04-09T11:39:29.799Z,13.27
2018-04-09T11:41:57.529Z,12.97
2018-04-09T11:44:26.067Z,13.97
2018-04-09T11:46:53.845Z,13.40
2018-04-09T11:49:21.620Z,17.30
2018-04-09T11:51:49.289Z,13.23
2018-04-09T11:54:17.017Z,10.13
2018-04-09T11:56:44.782Z,11.40
2018-04-09T11:59:12.463Z,12.40
2018-04-09T12:01:40.332Z,9.97
2018-04-09T12:04:07.957Z,11.63
2018-04-09T12:06:35.658Z,10.20
2018-04-09T12:09:03.415Z,9.10
2018-04-09T12:11:31.076Z,9.20
2018-04-09T12:13:58.759Z,8.47
2018-04-09T12:16:26.607Z,9.00
2018-04-09T12:18:54.366Z,11.77
2018-04-09T12:21:23.064Z,8.80
2018-04-09T12:23:50.826Z,9.47
2018-04-09T12:26:18.693Z,7.97
2018-04-09T12:28:46.354Z,11.53
2018-04-09T12:31:13.965Z,10.23
2018-04-09T12:33:41.641Z,10.80
2018-04-09T12:36:09.300Z,9.80
2018-04-09T12:38:37.192Z,10.43
2018-04-09T12:41:04.939Z,14.87
2018-04-09T12:43:32.743Z,11.40
2018-04-09T12:46:00.866Z,12.23
2018-04-09T12:48:28.516Z,14.10
2018-04-09T12:50:57.047Z,11.80
2018-04-09T12:53:24.748Z,10.90
2018-04-09T12:55:53.176Z,14.27
2018-04-09T12:58:21.645Z,13.23
2018-04-09T13:03:20.378Z,14.17
2018-04-09T13:05:48.138Z,15.00
2018-04-09T13:08:15.866Z,11.97
2018-04-09T13:10:43.772Z,11.87
2018-04-09T13:13:11.634Z,10.23
2018-04-09T13:15:39.497Z,11.20
2018-04-09T13:18:07.368Z,12.83
2018-04-09T13:20:35.127Z,13.97
2018-04-09T13:23:03.007Z,11.60
2018-04-09T13:25:30.865Z,11.60
2018-04-09T13:27:58.730Z,11.33
2018-04-09T13:30:26.596Z,16.80
2018-04-09T13:32:54.467Z,11.70
2018-04-09T13:35:22.331Z,12.30
2018-04-09T13:37:50.144Z,13.70
2018-04-09T13:40:18.784Z,11.13
2018-04-09T13:42:46.651Z,9.70
2018-04-09T13:45:14.515Z,8.93
2018-04-09T13:47:42.371Z,12.07
2018-04-09T13:50:10.203Z,12.63
2018-04-09T13:52:37.951Z,12.10
2018-04-09T13:55:06.602Z,11.57
2018-04-09T13:57:34.460Z,13.30
2018-04-09T14:00:02.218Z,12.30
2018-04-09T14:02:30.093Z,14.57
2018-04-09T14:04:57.957Z,11.70
2018-04-09T14:07:25.824Z,12.80
2018-04-09T14:09:53.613Z,10.83
2018-04-09T14:12:22.280Z,12.00
2018-04-09T14:14:50.103Z,10.13
2018-04-09T14:17:18.010Z,13.77
2018-04-09T14:19:45.882Z,12.77
2018-04-09T14:22:13.765Z,12.10
2018-04-09T14:24:42.332Z,9.90
2018-04-09T14:27:10.247Z,13.33
2018-04-09T14:29:38.890Z,14.00
2018-04-09T14:32:06.753Z,11.30
2018-04-09T14:34:34.624Z,14.27
2018-04-09T14:37:02.402Z,13.83
2018-04-09T14:39:30.348Z,17.20
2018-04-09T14:41:58.218Z,13.07
2018-04-09T14:44:26.091Z,13.67
2018-04-09T14:46:53.953Z,13.37
2018-04-09T14:49:21.815Z,14.67
2018-04-09T14:51:49.626Z,13.20
2018-04-09T14:54:18.094Z,19.93
2018-04-09T14:56:46.671Z,14.67
2018-04-09T14:59:14.540Z,12.17
2018-04-09T15:01:42.347Z,10.90
2018-04-09T15:04:10.212Z,13.60
2018-04-09T15:06:38.016Z,10.43
2018-04-09T15:09:05.985Z,10.30
2018-04-09T15:11:33.853Z,8.30
2018-04-09T15:14:01.569Z,9.87
2018-04-09T15:16:29.433Z,8.47
2018-04-09T15:18:57.241Z,9.00
2018-04-09T15:21:25.099Z,9.30
2018-04-09T15:23:52.861Z,8.30
2018-04-09T15:26:20.644Z,10.80
2018-04-09T15:28:48.407Z,8.27
2018-04-09T15:31:16.213Z,10.23
2018-04-09T15:33:43.945Z,8.93
2018-04-09T15:36:12.035Z,9.40
2018-04-09T15:38:39.666Z,8.50
2018-04-09T15:41:07.432Z,7.93
2018-04-09T15:43:35.191Z,7.87
2018-04-09T15:46:02.839Z,12.27
2018-04-09T15:48:30.543Z,13.07
2018-04-09T15:50:58.274Z,7.73
2018-04-09T15:53:26.043Z,10.57
2018-04-09T15:55:53.694Z,7.40
2018-04-09T15:58:21.462Z,7.60
2018-04-09T16:00:49.162Z,11.47
2018-04-09T16:03:16.883Z,7.00
2018-04-09T16:05:44.558Z,8.37
2018-04-09T16:08:12.323Z,6.47
2018-04-09T16:10:40.109Z,6.77
2018-04-09T16:13:07.746Z,7.70
2018-04-09T16:15:35.503Z,10.63
2018-04-09T16:18:06.613Z,8.30
2018-04-09T16:20:34.275Z,8.90
2018-04-09T16:23:01.930Z,7.30
2018-04-09T16:25:30.347Z,8.20
2018-04-09T16:27:58.033Z,9.00
2018-04-09T16:30:25.728Z,7.87
2018-04-09T16:32:54.154Z,8.70
2018-04-09T16:35:21.863Z,7.00
2018-04-09T16:37:50.513Z,8.57
2018-04-09T16:40:18.197Z,8.97
2018-04-09T16:42:45.849Z,7.87
2018-04-09T16:45:13.511Z,8.13
2018-04-09T16:47:42.712Z,8.23
2018-04-09T16:50:10.448Z,8.27
2018-04-09T16:52:38.335Z,8.50
2018-04-09T16:55:06.049Z,8.10
2018-04-09T17:00:18.090Z,7.77
2018-04-09T17:02:45.984Z,8.00
2018-04-09T17:05:13.612Z,11.70
2018-04-09T17:07:41.490Z,8.07
2018-04-09T17:10:09.198Z,9.13
2018-04-09T17:12:39.467Z,6.87
2018-04-09T17:15:07.348Z,15.97
2018-04-09T17:17:35.042Z,7.00
2018-04-09T17:20:02.668Z,7.33
2018-04-09T17:22:30.449Z,8.47
2018-04-09T17:24:58.113Z,9.03
2018-04-09T17:27:25.795Z,7.47
2018-04-09T17:29:53.437Z,6.87
2018-04-09T17:32:21.104Z,9.80
2018-04-09T17:34:48.870Z,9.50
2018-04-09T17:37:16.725Z,9.70
2018-04-09T17:39:44.503Z,12.67
2018-04-09T17:42:12.116Z,12.93
2018-04-09T17:44:40.020Z,8.40
2018-04-09T17:47:07.999Z,10.23
2018-04-09T17:49:35.746Z,8.33
2018-04-09T17:52:03.531Z,16.37
2018-04-09T17:54:31.287Z,9.83
2018-04-09T17:56:59.049Z,9.40
2018-04-09T17:59:26.745Z,9.33
2018-04-09T18:01:55.224Z,9.90
2018-04-09T18:04:23.698Z,11.90
2018-04-09T18:06:52.341Z,10.17
2018-04-09T18:09:20.117Z,13.97
2018-04-09T18:11:47.892Z,9.90
2018-04-09T18:14:15.543Z,10.53
2018-04-09T18:16:43.206Z,8.47
2018-04-09T18:19:10.859Z,11.67
2018-04-09T18:21:38.640Z,15.10
2018-04-09T18:24:06.317Z,11.30
2018-04-09T18:26:34.722Z,10.70
2018-04-09T18:29:03.121Z,15.80
2018-04-09T18:31:30.843Z,12.97
2018-04-09T18:33:58.600Z,16.33
2018-04-09T18:36:27.044Z,14.47
2018-04-09T18:38:54.717Z,9.67
2018-04-09T18:41:22.329Z,10.20
2018-04-09T18:43:50.752Z,11.80
2018-04-09T18:46:18.378Z,18.13
2018-04-09T18:48:49.737Z,12.87
2018-04-09T18:51:17.464Z,14.30
2018-04-09T18:53:45.102Z,16.40
2018-04-09T18:56:12.775Z,20.33
2018-04-09T18:58:40.407Z,21.23
2018-04-09T19:01:08.189Z,20.00
2018-04-09T19:03:35.839Z,18.00
2018-04-09T19:06:03.500Z,22.87
2018-04-09T19:08:31.134Z,18.57
2018-04-09T19:10:58.929Z,19.67
2018-04-09T19:13:26.913Z,16.70
2018-04-09T19:15:54.529Z,25.10
2018-04-09T19:18:22.331Z,17.70
2018-04-09T19:20:50.041Z,16.93
2018-04-09T19:23:18.898Z,16.67
2018-04-09T19:25:46.579Z,14.40
2018-04-09T19:28:14.999Z,18.20
2018-04-09T19:30:42.706Z,19.40
2018-04-09T19:33:11.982Z,18.03
2018-04-09T19:35:45.257Z,21.37
2018-04-09T19:38:18.572Z,21.80
2018-04-09T19:40:46.237Z,27.73
2018-04-09T19:48:56.296Z,35.30
2018-04-09T19:51:23.967Z,34.90
2018-04-09T19:53:51.652Z,36.23
2018-04-09T19:56:19.413Z,38.43
2018-04-09T19:58:47.010Z,43.97
2018-04-09T20:01:15.484Z,45.00
2018-04-09T20:03:43.327Z,45.90
2018-04-09T20:06:10.977Z,44.53
2018-04-09T20:08:38.745Z,41.97
2018-04-09T20:11:06.426Z,46.47
2018-04-09T20:13:34.097Z,44.90
2018-04-09T20:16:01.919Z,46.23
2018-04-09T20:18:29.599Z,54.87
2018-04-09T20:20:57.380Z,53.57
2018-04-09T20:23:26.876Z,55.20
2018-04-09T20:25:54.946Z,51.50
2018-04-09T20:28:22.819Z,54.93
2018-04-09T20:30:50.702Z,52.60
2018-04-09T20:33:18.532Z,51.90
2018-04-09T20:35:46.201Z,51.33
2018-04-09T20:38:14.218Z,55.57
2018-04-09T20:40:42.768Z,52.30
2018-04-09T20:43:10.987Z,53.17
2018-04-09T20:45:41.717Z,57.40
2018-04-09T20:48:09.661Z,54.23
2018-04-09T20:50:37.361Z,54.70
2018-04-09T20:53:05.070Z,55.80
2018-04-09T20:55:32.733Z,57.67
2018-04-09T20:58:00.338Z,49.37
2018-04-09T21:00:29.521Z,54.50
2018-04-09T21:02:57.241Z,56.00
2018-04-09T21:05:24.867Z,53.23
2018-04-09T21:07:52.595Z,57.60
2018-04-09T21:10:20.328Z,54.63
2018-04-09T21:12:47.948Z,58.60
2018-04-09T21:15:16.384Z,55.00
2018-04-09T21:17:44.037Z,54.53
2018-04-09T21:20:11.717Z,55.80
2018-04-09T21:22:39.361Z,57.57
2018-04-09T21:25:07.348Z,55.80
2018-04-09T21:27:35.199Z,56.30
2018-04-09T21:30:03.069Z,56.93
2018-04-09T21:32:30.839Z,56.40
2018-04-09T21:34:58.464Z,63.10
2018-04-09T21:37:26.249Z,61.43
2018-04-09T21:39:54.137Z,54.03
2018-04-09T21:42:21.911Z,64.40
2018-04-09T21:44:50.503Z,61.23
2018-04-09T21:47:18.113Z,60.97
2018-04-09T21:49:45.915Z,56.60
2018-04-09T21:52:14.396Z,60.77
2018-04-09T21:54:42.066Z,58.50
2018-04-09T21:57:09.713Z,61.83
2018-04-09T21:59:37.472Z,60.00
2018-04-09T22:02:05.983Z,56.50
2018-04-09T22:04:34.448Z,59.53
2018-04-09T22:07:02.118Z,65.90
2018-04-09T22:09:29.778Z,56.43
2018-04-09T22:11:57.367Z,58.60
2018-04-09T22:14:25.906Z,58.93
2018-04-09T22:16:53.590Z,60.60
2018-04-09T22:19:21.242Z,62.97
2018-04-09T22:21:48.992Z,60.43
2018-04-09T22:24:16.637Z,56.30
2018-04-09T22:26:44.354Z,55.80
2018-04-09T22:29:12.803Z,60.27
2018-04-09T22:31:40.520Z,58.87
2018-04-09T22:34:08.221Z,62.93
2018-04-09T22:36:35.829Z,59.37
2018-04-09T22:39:04.360Z,62.60
2018-04-09T22:41:32.028Z,61.30
2018-04-09T22:43:59.697Z,57.77
2018-04-09T22:46:27.336Z,55.40
2018-04-09T22:48:54.982Z,52.63
2018-04-09T22:51:22.691Z,55.23
2018-04-09T22:53:50.542Z,53.77
2018-04-09T22:56:18.192Z,53.60
2018-04-09T22:58:45.874Z,52.77
2018-04-09T23:01:13.532Z,53.50
2018-04-09T23:03:41.381Z,55.77
2018-04-09T23:06:09.068Z,49.37
2018-04-09T23:08:36.812Z,58.40
2018-04-09T23:11:04.592Z,49.77
2018-04-09T23:13:32.228Z,52.60
2018-04-09T23:16:00.016Z,53.17
2018-04-09T23:18:27.696Z,56.60
2018-04-09T23:20:55.422Z,49.30
2018-04-09T23:23:23.079Z,48.73
2018-04-09T23:25:50.699Z,52.53
2018-04-09T23:28:19.143Z,52.13
2018-04-09T23:30:46.784Z,48.73
2018-04-09T23:33:14.485Z,49.97
2018-04-09T23:35:42.077Z,48.93
2018-04-09T23:38:10.454Z,48.87
2018-04-09T23:40:38.115Z,48.20
2018-04-09T23:43:06.514Z,45.13
2018-04-09T23:45:34.199Z,48.57
2018-04-09T23:48:01.847Z,48.70
2018-04-09T23:50:29.523Z,47.47
2018-04-09T23:52:57.214Z,44.30
2018-04-09T23:55:24.862Z,45.87
2018-04-09T23:57:53.325Z,49.77
